sensor_id;sensor_type;location;lat;lon;timestamp;pressure;altitude;pressure_sealevel;temperature
58909;BMP280;44690;48.154;17.102;2022-09-03T00:01:00;99587.47;;;13.22
58909;BMP280;44690;48.154;17.102;2022-09-03T00:02:35;99582.44;;;13.28
58909;BMP280;44690;48.154;17.102;2022-09-03T00:04:11;99593.50;;;13.30
58909;BMP280;44690;48.154;17.102;2022-09-03T00:09:19;99591.50;;;13.30
58909;BMP280;44690;48.154;17.102;2022-09-03T00:10:58;99590.03;;;13.29
58909;BMP280;44690;48.154;17.102;2022-09-03T00:12:32;99589.06;;;13.25
58909;BMP280;44690;48.154;17.102;2022-09-03T00:14:06;99586.50;;;13.17
58909;BMP280;44690;48.154;17.102;2022-09-03T00:15:40;99594.94;;;13.12
58909;BMP280;44690;48.154;17.102;2022-09-03T00:17:14;99588.94;;;13.04
58909;BMP280;44690;48.154;17.102;2022-09-03T00:18:49;99595.53;;;13.00
58909;BMP280;44690;48.154;17.102;2022-09-03T00:20:26;99593.41;;;12.99
58909;BMP280;44690;48.154;17.102;2022-09-03T00:22:02;99592.38;;;12.94
58909;BMP280;44690;48.154;17.102;2022-09-03T00:23:39;99591.97;;;12.88
58909;BMP280;44690;48.154;17.102;2022-09-03T00:25:14;99588.78;;;12.82
58909;BMP280;44690;48.154;17.102;2022-09-03T00:26:52;99582.53;;;12.80
58909;BMP280;44690;48.154;17.102;2022-09-03T00:28:33;99591.69;;;12.75
58909;BMP280;44690;48.154;17.102;2022-09-03T00:30:08;99585.66;;;12.66
58909;BMP280;44690;48.154;17.102;2022-09-03T00:31:45;99587.94;;;12.60
58909;BMP280;44690;48.154;17.102;2022-09-03T00:33:20;99587.94;;;12.60
58909;BMP280;44690;48.154;17.102;2022-09-03T00:34:55;99593.38;;;12.60
58909;BMP280;44690;48.154;17.102;2022-09-03T00:36:36;99591.38;;;12.61
58909;BMP280;44690;48.154;17.102;2022-09-03T00:38:13;99586.94;;;12.56
58909;BMP280;44690;48.154;17.102;2022-09-03T00:39:45;99587.22;;;12.50
58909;BMP280;44690;48.154;17.102;2022-09-03T00:41:27;99593.06;;;12.47
58909;BMP280;44690;48.154;17.102;2022-09-03T00:45:13;99591.66;;;12.36
58909;BMP280;44690;48.154;17.102;2022-09-03T00:48:29;99583.31;;;12.24
58909;BMP280;44690;48.154;17.102;2022-09-03T00:50:14;99585.03;;;12.20
58909;BMP280;44690;48.154;17.102;2022-09-03T00:53:27;99585.56;;;12.08
58909;BMP280;44690;48.154;17.102;2022-09-03T00:55:11;99593.28;;;12.02
58909;BMP280;44690;48.154;17.102;2022-09-03T00:56:51;99588.41;;;12.01
58909;BMP280;44690;48.154;17.102;2022-09-03T01:01:39;99589.25;;;11.94
58909;BMP280;44690;48.154;17.102;2022-09-03T01:04:59;99583.19;;;11.86
58909;BMP280;44690;48.154;17.102;2022-09-03T01:17:05;99596.13;;;11.95
58909;BMP280;44690;48.154;17.102;2022-09-03T01:25:16;99602.72;;;11.74
58909;BMP280;44690;48.154;17.102;2022-09-03T01:30:18;99606.81;;;11.66
58909;BMP280;44690;48.154;17.102;2022-09-03T01:37:08;99601.72;;;11.43
58909;BMP280;44690;48.154;17.102;2022-09-03T01:43:48;99606.34;;;11.33
58909;BMP280;44690;48.154;17.102;2022-09-03T01:45:30;99613.63;;;11.30
58909;BMP280;44690;48.154;17.102;2022-09-03T01:47:17;99611.91;;;11.25
58909;BMP280;44690;48.154;17.102;2022-09-03T01:52:44;99604.00;;;11.19
58909;BMP280;44690;48.154;17.102;2022-09-03T01:55:59;99604.47;;;11.25
58909;BMP280;44690;48.154;17.102;2022-09-03T01:57:41;99602.22;;;11.32
58909;BMP280;44690;48.154;17.102;2022-09-03T01:59:21;99604.66;;;11.37
58909;BMP280;44690;48.154;17.102;2022-09-03T02:00:56;99601.56;;;11.41
58909;BMP280;44690;48.154;17.102;2022-09-03T02:02:31;99598.41;;;11.44
58909;BMP280;44690;48.154;17.102;2022-09-03T02:04:12;99602.19;;;11.49
58909;BMP280;44690;48.154;17.102;2022-09-03T02:05:45;99598.75;;;11.48
58909;BMP280;44690;48.154;17.102;2022-09-03T02:07:18;99606.00;;;11.46
58909;BMP280;44690;48.154;17.102;2022-09-03T02:08:52;99598.75;;;11.48
58909;BMP280;44690;48.154;17.102;2022-09-03T02:10:25;99604.34;;;11.50
58909;BMP280;44690;48.154;17.102;2022-09-03T02:12:02;99594.88;;;11.51
58909;BMP280;44690;48.154;17.102;2022-09-03T02:13:38;99608.31;;;11.49
58909;BMP280;44690;48.154;17.102;2022-09-03T02:15:13;99607.28;;;11.45
58909;BMP280;44690;48.154;17.102;2022-09-03T02:16:46;99602.84;;;11.40
58909;BMP280;44690;48.154;17.102;2022-09-03T02:18:19;99602.84;;;11.40
58909;BMP280;44690;48.154;17.102;2022-09-03T02:19:53;99600.84;;;11.40
58909;BMP280;44690;48.154;17.102;2022-09-03T02:21:26;99603.84;;;11.44
58909;BMP280;44690;48.154;17.102;2022-09-03T02:23:01;99601.47;;;11.48
58909;BMP280;44690;48.154;17.102;2022-09-03T02:24:33;99604.09;;;11.56
58909;BMP280;44690;48.154;17.102;2022-09-03T02:26:06;99607.00;;;11.68
58909;BMP280;44690;48.154;17.102;2022-09-03T02:27:39;99604.34;;;11.77
58909;BMP280;44690;48.154;17.102;2022-09-03T02:29:13;99608.38;;;11.86
58909;BMP280;44690;48.154;17.102;2022-09-03T02:30:46;99610.28;;;11.93
58909;BMP280;44690;48.154;17.102;2022-09-03T02:32:21;99614.72;;;11.98
58909;BMP280;44690;48.154;17.102;2022-09-03T02:33:55;99609.28;;;11.98
58909;BMP280;44690;48.154;17.102;2022-09-03T02:35:27;99605.84;;;11.98
58909;BMP280;44690;48.154;17.102;2022-09-03T02:37:00;99607.72;;;11.95
58909;BMP280;44690;48.154;17.102;2022-09-03T02:38:43;99606.56;;;11.98
58909;BMP280;44690;48.154;17.102;2022-09-03T02:40:16;99606.56;;;11.98
58909;BMP280;44690;48.154;17.102;2022-09-03T02:41:50;99607.81;;;11.97
58909;BMP280;44690;48.154;17.102;2022-09-03T02:43:45;99597.13;;;11.99
58909;BMP280;44690;48.154;17.102;2022-09-03T02:45:22;99603.28;;;12.00
58909;BMP280;44690;48.154;17.102;2022-09-03T02:46:56;99610.44;;;11.95
58909;BMP280;44690;48.154;17.102;2022-09-03T02:48:29;99607.00;;;11.95
58909;BMP280;44690;48.154;17.102;2022-09-03T02:50:01;99602.28;;;11.95
58909;BMP280;44690;48.154;17.102;2022-09-03T02:51:40;99602.84;;;11.94
58909;BMP280;44690;48.154;17.102;2022-09-03T02:53:15;99602.28;;;11.95
58909;BMP280;44690;48.154;17.102;2022-09-03T02:54:47;99606.72;;;12.00
58909;BMP280;44690;48.154;17.102;2022-09-03T02:56:21;99603.75;;;12.06
58909;BMP280;44690;48.154;17.102;2022-09-03T02:57:57;99603.31;;;12.09
58909;BMP280;44690;48.154;17.102;2022-09-03T02:59:30;99597.16;;;12.09
58909;BMP280;44690;48.154;17.102;2022-09-03T03:01:03;99601.03;;;12.06
58909;BMP280;44690;48.154;17.102;2022-09-03T03:02:35;99606.88;;;12.02
58909;BMP280;44690;48.154;17.102;2022-09-03T03:04:08;99603.84;;;11.98
58909;BMP280;44690;48.154;17.102;2022-09-03T03:05:42;99604.66;;;11.91
58909;BMP280;44690;48.154;17.102;2022-09-03T03:07:14;99604.22;;;11.85
58909;BMP280;44690;48.154;17.102;2022-09-03T03:08:47;99601.50;;;11.85
58909;BMP280;44690;48.154;17.102;2022-09-03T03:10:23;99600.97;;;11.96
58909;BMP280;44690;48.154;17.102;2022-09-03T03:11:55;99600.28;;;12.05
58909;BMP280;44690;48.154;17.102;2022-09-03T03:13:28;99602.88;;;12.13
58909;BMP280;44690;48.154;17.102;2022-09-03T03:15:00;99603.06;;;12.15
58909;BMP280;44690;48.154;17.102;2022-09-03T03:16:35;99602.34;;;12.15
58909;BMP280;44690;48.154;17.102;2022-09-03T03:18:07;99606.50;;;12.16
58909;BMP280;44690;48.154;17.102;2022-09-03T03:19:42;99599.47;;;12.22
58909;BMP280;44690;48.154;17.102;2022-09-03T03:21:16;99607.97;;;12.36
58909;BMP280;44690;48.154;17.102;2022-09-03T03:22:49;99604.69;;;12.47
58909;BMP280;44690;48.154;17.102;2022-09-03T03:24:21;99610.00;;;12.55
58909;BMP280;44690;48.154;17.102;2022-09-03T03:25:59;99612.75;;;12.64
58909;BMP280;44690;48.154;17.102;2022-09-03T03:27:31;99610.16;;;12.66
58909;BMP280;44690;48.154;17.102;2022-09-03T03:29:03;99621.47;;;12.63
58909;BMP280;44690;48.154;17.102;2022-09-03T03:30:36;99611.88;;;12.62
58909;BMP280;44690;48.154;17.102;2022-09-03T03:32:11;99618.19;;;12.64
58909;BMP280;44690;48.154;17.102;2022-09-03T03:33:43;99620.34;;;12.66
58909;BMP280;44690;48.154;17.102;2022-09-03T03:35:15;99625.81;;;12.66
58909;BMP280;44690;48.154;17.102;2022-09-03T03:36:48;99620.75;;;12.62
58909;BMP280;44690;48.154;17.102;2022-09-03T03:38:22;99622.78;;;12.62
58909;BMP280;44690;48.154;17.102;2022-09-03T03:39:54;99627.03;;;12.55
58909;BMP280;44690;48.154;17.102;2022-09-03T03:41:28;99619.56;;;12.46
58909;BMP280;44690;48.154;17.102;2022-09-03T03:43:02;99611.69;;;12.40
58909;BMP280;44690;48.154;17.102;2022-09-03T03:44:34;99621.13;;;12.39
58909;BMP280;44690;48.154;17.102;2022-09-03T03:46:06;99620.00;;;12.42
58909;BMP280;44690;48.154;17.102;2022-09-03T03:47:38;99624.16;;;12.43
58909;BMP280;44690;48.154;17.102;2022-09-03T03:49:10;99623.63;;;12.45
58909;BMP280;44690;48.154;17.102;2022-09-03T03:50:45;99618.88;;;12.46
58909;BMP280;44690;48.154;17.102;2022-09-03T03:52:18;99615.44;;;12.45
58909;BMP280;44690;48.154;17.102;2022-09-03T03:53:52;99615.56;;;12.47
58909;BMP280;44690;48.154;17.102;2022-09-03T03:55:25;99618.47;;;12.49
58909;BMP280;44690;48.154;17.102;2022-09-03T03:56:57;99608.72;;;12.56
58909;BMP280;44690;48.154;17.102;2022-09-03T03:58:30;99608.16;;;12.57
58909;BMP280;44690;48.154;17.102;2022-09-03T04:00:03;99609.44;;;12.56
58909;BMP280;44690;48.154;17.102;2022-09-03T04:01:45;99615.88;;;12.61
58909;BMP280;44690;48.154;17.102;2022-09-03T04:03:17;99612.75;;;12.64
58909;BMP280;44690;48.154;17.102;2022-09-03T04:04:49;99614.31;;;12.67
58909;BMP280;44690;48.154;17.102;2022-09-03T04:06:22;99617.16;;;12.69
58909;BMP280;44690;48.154;17.102;2022-09-03T04:07:55;99617.03;;;12.67
58909;BMP280;44690;48.154;17.102;2022-09-03T04:09:27;99618.06;;;12.72
58909;BMP280;44690;48.154;17.102;2022-09-03T04:10:59;99624.22;;;12.73
58909;BMP280;44690;48.154;17.102;2022-09-03T04:12:32;99626.34;;;12.74
58909;BMP280;44690;48.154;17.102;2022-09-03T04:14:04;99618.16;;;12.74
58909;BMP280;44690;48.154;17.102;2022-09-03T04:15:36;99625.63;;;12.73
58909;BMP280;44690;48.154;17.102;2022-09-03T04:17:08;99624.22;;;12.73
58909;BMP280;44690;48.154;17.102;2022-09-03T04:18:41;99625.34;;;12.69
58909;BMP280;44690;48.154;17.102;2022-09-03T04:20:13;99624.34;;;12.65
58909;BMP280;44690;48.154;17.102;2022-09-03T04:21:45;99617.47;;;12.64
58909;BMP280;44690;48.154;17.102;2022-09-03T04:23:18;99622.34;;;12.65
58909;BMP280;44690;48.154;17.102;2022-09-03T04:24:50;99623.50;;;12.62
58909;BMP280;44690;48.154;17.102;2022-09-03T04:26:24;99622.91;;;12.64
58909;BMP280;44690;48.154;17.102;2022-09-03T04:27:56;99631.06;;;12.64
58909;BMP280;44690;48.154;17.102;2022-09-03T04:29:29;99629.06;;;12.64
58909;BMP280;44690;48.154;17.102;2022-09-03T04:31:06;99629.22;;;12.66
58909;BMP280;44690;48.154;17.102;2022-09-03T04:32:39;99634.09;;;12.68
58909;BMP280;44690;48.154;17.102;2022-09-03T04:34:24;99640.25;;;12.68
58909;BMP280;44690;48.154;17.102;2022-09-03T04:36:01;99642.41;;;12.70
58909;BMP280;44690;48.154;17.102;2022-09-03T04:37:33;99643.84;;;12.71
58909;BMP280;44690;48.154;17.102;2022-09-03T04:39:05;99636.50;;;12.73
58909;BMP280;44690;48.154;17.102;2022-09-03T04:40:38;99635.97;;;12.75
58909;BMP280;44690;48.154;17.102;2022-09-03T04:42:10;99643.56;;;12.77
58909;BMP280;44690;48.154;17.102;2022-09-03T04:43:42;99643.72;;;12.79
58909;BMP280;44690;48.154;17.102;2022-09-03T04:45:16;99644.44;;;12.79
58909;BMP280;44690;48.154;17.102;2022-09-03T04:46:49;99641.13;;;12.81
58909;BMP280;44690;48.154;17.102;2022-09-03T04:48:22;99646.69;;;12.83
58909;BMP280;44690;48.154;17.102;2022-09-03T04:49:54;99655.03;;;12.85
58909;BMP280;44690;48.154;17.102;2022-09-03T04:51:26;99653.31;;;12.89
58909;BMP280;44690;48.154;17.102;2022-09-03T04:53:00;99650.75;;;12.91
58909;BMP280;44690;48.154;17.102;2022-09-03T04:54:38;99648.13;;;12.93
58909;BMP280;44690;48.154;17.102;2022-09-03T04:56:20;99655.91;;;12.97
58909;BMP280;44690;48.154;17.102;2022-09-03T04:57:52;99663.63;;;13.00
58909;BMP280;44690;48.154;17.102;2022-09-03T04:59:27;99661.75;;;13.03
58909;BMP280;44690;48.154;17.102;2022-09-03T05:01:05;99660.03;;;13.08
58909;BMP280;44690;48.154;17.102;2022-09-03T05:02:37;99659.63;;;13.11
58909;BMP280;44690;48.154;17.102;2022-09-03T05:04:10;99668.25;;;13.17
58909;BMP280;44690;48.154;17.102;2022-09-03T05:05:44;99665.94;;;13.23
58909;BMP280;44690;48.154;17.102;2022-09-03T05:07:24;99670.53;;;13.30
58909;BMP280;44690;48.154;17.102;2022-09-03T05:08:59;99671.66;;;13.37
58909;BMP280;44690;48.154;17.102;2022-09-03T05:10:31;99679.69;;;13.45
58909;BMP280;44690;48.154;17.102;2022-09-03T05:12:04;99669.94;;;13.51
58909;BMP280;44690;48.154;17.102;2022-09-03T05:13:36;99663.13;;;13.62
58909;BMP280;44690;48.154;17.102;2022-09-03T05:15:08;99660.44;;;14.03
58909;BMP280;44690;48.154;17.102;2022-09-03T05:16:40;99654.06;;;14.95
58909;BMP280;44690;48.154;17.102;2022-09-03T05:18:23;99654.72;;;16.09
58909;BMP280;44690;48.154;17.102;2022-09-03T05:19:57;99649.31;;;16.97
58909;BMP280;44690;48.154;17.102;2022-09-03T05:21:29;99652.31;;;17.81
58909;BMP280;44690;48.154;17.102;2022-09-03T05:23:02;99654.56;;;18.55
58909;BMP280;44690;48.154;17.102;2022-09-03T05:24:35;99655.91;;;19.15
58909;BMP280;44690;48.154;17.102;2022-09-03T05:26:08;99657.31;;;19.63
58909;BMP280;44690;48.154;17.102;2022-09-03T05:27:42;99661.97;;;20.10
58909;BMP280;44690;48.154;17.102;2022-09-03T05:29:14;99653.25;;;20.16
58909;BMP280;44690;48.154;17.102;2022-09-03T05:30:56;99657.19;;;20.28
58909;BMP280;44690;48.154;17.102;2022-09-03T05:32:29;99652.22;;;20.60
58909;BMP280;44690;48.154;17.102;2022-09-03T05:34:02;99651.09;;;20.85
58909;BMP280;44690;48.154;17.102;2022-09-03T05:35:34;99656.66;;;21.05
58909;BMP280;44690;48.154;17.102;2022-09-03T05:37:07;99649.16;;;21.07
58909;BMP280;44690;48.154;17.102;2022-09-03T05:38:39;99656.84;;;21.31
58909;BMP280;44690;48.154;17.102;2022-09-03T05:40:11;99659.66;;;21.72
58909;BMP280;44690;48.154;17.102;2022-09-03T05:41:44;99673.59;;;21.96
58909;BMP280;44690;48.154;17.102;2022-09-03T05:43:16;99674.66;;;21.87
58909;BMP280;44690;48.154;17.102;2022-09-03T05:44:49;99674.16;;;21.93
58909;BMP280;44690;48.154;17.102;2022-09-03T05:46:22;99672.63;;;21.88
58909;BMP280;44690;48.154;17.102;2022-09-03T05:48:05;99660.19;;;22.11
58909;BMP280;44690;48.154;17.102;2022-09-03T05:49:37;99669.56;;;22.45
58909;BMP280;44690;48.154;17.102;2022-09-03T05:51:10;99673.00;;;22.67
58909;BMP280;44690;48.154;17.102;2022-09-03T05:52:43;99673.13;;;22.71
58909;BMP280;44690;48.154;17.102;2022-09-03T05:54:15;99673.78;;;22.94
58909;BMP280;44690;48.154;17.102;2022-09-03T05:55:53;99667.84;;;23.05
58909;BMP280;44690;48.154;17.102;2022-09-03T05:57:25;99664.38;;;23.05
58909;BMP280;44690;48.154;17.102;2022-09-03T05:58:58;99674.25;;;22.86
58909;BMP280;44690;48.154;17.102;2022-09-03T06:00:36;99673.56;;;22.88
58909;BMP280;44690;48.154;17.102;2022-09-03T06:02:09;99666.44;;;22.81
58909;BMP280;44690;48.154;17.102;2022-09-03T06:03:43;99665.69;;;23.02
58909;BMP280;44690;48.154;17.102;2022-09-03T06:05:16;99674.66;;;23.26
58909;BMP280;44690;48.154;17.102;2022-09-03T06:06:49;99673.78;;;23.46
58909;BMP280;44690;48.154;17.102;2022-09-03T06:08:22;99664.69;;;23.69
58909;BMP280;44690;48.154;17.102;2022-09-03T06:09:54;99666.31;;;23.80
58909;BMP280;44690;48.154;17.102;2022-09-03T06:11:27;99660.59;;;24.02
58909;BMP280;44690;48.154;17.102;2022-09-03T06:13:00;99670.13;;;23.95
58909;BMP280;44690;48.154;17.102;2022-09-03T06:14:35;99669.59;;;24.00
58909;BMP280;44690;48.154;17.102;2022-09-03T06:16:08;99669.28;;;23.88
58909;BMP280;44690;48.154;17.102;2022-09-03T06:17:41;99674.47;;;23.72
58909;BMP280;44690;48.154;17.102;2022-09-03T06:19:13;99675.69;;;23.39
58909;BMP280;44690;48.154;17.102;2022-09-03T06:20:52;99670.47;;;23.25
58909;BMP280;44690;48.154;17.102;2022-09-03T06:22:24;99666.84;;;23.45
58909;BMP280;44690;48.154;17.102;2022-09-03T06:23:59;99670.59;;;23.85
58909;BMP280;44690;48.154;17.102;2022-09-03T06:25:31;99667.03;;;24.10
58909;BMP280;44690;48.154;17.102;2022-09-03T06:27:03;99669.94;;;24.17
58909;BMP280;44690;48.154;17.102;2022-09-03T06:28:39;99671.47;;;23.92
58909;BMP280;44690;48.154;17.102;2022-09-03T06:30:12;99663.66;;;23.84
58909;BMP280;44690;48.154;17.102;2022-09-03T06:31:44;99660.97;;;23.88
58909;BMP280;44690;48.154;17.102;2022-09-03T06:33:18;99662.09;;;24.05
58909;BMP280;44690;48.154;17.102;2022-09-03T06:34:50;99666.25;;;24.38
58909;BMP280;44690;48.154;17.102;2022-09-03T06:36:23;99664.59;;;24.57
58909;BMP280;44690;48.154;17.102;2022-09-03T06:37:57;99656.91;;;24.55
58909;BMP280;44690;48.154;17.102;2022-09-03T06:39:30;99660.94;;;24.48
58909;BMP280;44690;48.154;17.102;2022-09-03T06:41:03;99665.63;;;24.39
58909;BMP280;44690;48.154;17.102;2022-09-03T06:42:36;99656.38;;;24.63
58909;BMP280;44690;48.154;17.102;2022-09-03T06:44:08;99660.50;;;24.96
58909;BMP280;44690;48.154;17.102;2022-09-03T06:45:43;99658.28;;;25.24
58909;BMP280;44690;48.154;17.102;2022-09-03T06:47:15;99657.13;;;25.39
58909;BMP280;44690;48.154;17.102;2022-09-03T06:48:48;99654.84;;;25.70
58909;BMP280;44690;48.154;17.102;2022-09-03T06:50:22;99652.25;;;25.40
58909;BMP280;44690;48.154;17.102;2022-09-03T06:51:54;99655.44;;;25.22
58909;BMP280;44690;48.154;17.102;2022-09-03T06:53:28;99653.19;;;25.14
58909;BMP280;44690;48.154;17.102;2022-09-03T06:55:03;99650.81;;;25.35
58909;BMP280;44690;48.154;17.102;2022-09-03T06:56:35;99660.31;;;25.66
58909;BMP280;44690;48.154;17.102;2022-09-03T06:58:14;99655.38;;;26.06
58909;BMP280;44690;48.154;17.102;2022-09-03T06:59:47;99657.66;;;26.20
58909;BMP280;44690;48.154;17.102;2022-09-03T07:01:21;99653.75;;;26.39
58909;BMP280;44690;48.154;17.102;2022-09-03T07:02:56;99661.16;;;26.79
58909;BMP280;44690;48.154;17.102;2022-09-03T07:04:34;99658.25;;;26.65
58909;BMP280;44690;48.154;17.102;2022-09-03T07:06:10;99651.84;;;26.54
58909;BMP280;44690;48.154;17.102;2022-09-03T07:07:42;99661.63;;;26.59
58909;BMP280;44690;48.154;17.102;2022-09-03T07:09:16;99655.59;;;26.81
58909;BMP280;44690;48.154;17.102;2022-09-03T07:10:50;99647.84;;;26.71
58909;BMP280;44690;48.154;17.102;2022-09-03T07:12:24;99650.56;;;26.65
58909;BMP280;44690;48.154;17.102;2022-09-03T07:13:57;99655.28;;;26.50
58909;BMP280;44690;48.154;17.102;2022-09-03T07:15:29;99652.31;;;26.34
58909;BMP280;44690;48.154;17.102;2022-09-03T07:17:02;99652.91;;;26.29
58909;BMP280;44690;48.154;17.102;2022-09-03T07:18:35;99663.56;;;26.44
58909;BMP280;44690;48.154;17.102;2022-09-03T07:20:07;99659.03;;;26.73
58909;BMP280;44690;48.154;17.102;2022-09-03T07:21:40;99649.84;;;26.63
58909;BMP280;44690;48.154;17.102;2022-09-03T07:23:20;99653.66;;;26.91
58909;BMP280;44690;48.154;17.102;2022-09-03T07:24:52;99664.84;;;26.96
58909;BMP280;44690;48.154;17.102;2022-09-03T07:26:31;99663.22;;;26.74
58909;BMP280;44690;48.154;17.102;2022-09-03T07:28:04;99660.53;;;26.84
58909;BMP280;44690;48.154;17.102;2022-09-03T07:29:38;99658.94;;;26.65
58909;BMP280;44690;48.154;17.102;2022-09-03T07:31:14;99666.88;;;26.31
58909;BMP280;44690;48.154;17.102;2022-09-03T07:32:47;99659.50;;;26.01
58909;BMP280;44690;48.154;17.102;2022-09-03T07:34:22;99652.66;;;26.10
58909;BMP280;44690;48.154;17.102;2022-09-03T07:36:08;99664.38;;;26.03
58909;BMP280;44690;48.154;17.102;2022-09-03T07:37:41;99663.34;;;25.80
58909;BMP280;44690;48.154;17.102;2022-09-03T07:39:14;99668.72;;;25.70
58909;BMP280;44690;48.154;17.102;2022-09-03T07:40:47;99668.66;;;25.66
58909;BMP280;44690;48.154;17.102;2022-09-03T07:42:19;99670.81;;;25.69
58909;BMP280;44690;48.154;17.102;2022-09-03T07:43:52;99673.16;;;25.87
58909;BMP280;44690;48.154;17.102;2022-09-03T07:45:24;99671.72;;;25.82
58909;BMP280;44690;48.154;17.102;2022-09-03T07:46:59;99664.44;;;25.61
58909;BMP280;44690;48.154;17.102;2022-09-03T07:48:32;99667.94;;;25.63
58909;BMP280;44690;48.154;17.102;2022-09-03T07:50:08;99672.06;;;25.58
58909;BMP280;44690;48.154;17.102;2022-09-03T07:51:40;99680.94;;;25.53
58909;BMP280;44690;48.154;17.102;2022-09-03T07:53:12;99673.22;;;25.45
58909;BMP280;44690;48.154;17.102;2022-09-03T07:54:46;99672.00;;;25.56
58909;BMP280;44690;48.154;17.102;2022-09-03T07:56:18;99677.47;;;25.52
58909;BMP280;44690;48.154;17.102;2022-09-03T07:57:56;99677.09;;;25.28
58909;BMP280;44690;48.154;17.102;2022-09-03T07:59:30;99676.72;;;25.07
58909;BMP280;44690;48.154;17.102;2022-09-03T08:01:04;99673.06;;;24.99
58909;BMP280;44690;48.154;17.102;2022-09-03T08:02:36;99665.28;;;24.91
58909;BMP280;44690;48.154;17.102;2022-09-03T08:04:08;99674.13;;;24.82
58909;BMP280;44690;48.154;17.102;2022-09-03T08:05:41;99670.63;;;24.81
58909;BMP280;44690;48.154;17.102;2022-09-03T08:07:16;99661.97;;;25.01
58909;BMP280;44690;48.154;17.102;2022-09-03T08:08:52;99664.38;;;25.17
58909;BMP280;44690;48.154;17.102;2022-09-03T08:10:24;99667.47;;;24.97
58909;BMP280;44690;48.154;17.102;2022-09-03T08:11:59;99665.72;;;24.77
58909;BMP280;44690;48.154;17.102;2022-09-03T08:13:31;99661.38;;;24.68
58909;BMP280;44690;48.154;17.102;2022-09-03T08:15:03;99665.66;;;24.75
58909;BMP280;44690;48.154;17.102;2022-09-03T08:16:37;99663.03;;;24.84
58909;BMP280;44690;48.154;17.102;2022-09-03T08:18:09;99652.91;;;24.62
58909;BMP280;44690;48.154;17.102;2022-09-03T08:19:42;99665.72;;;24.45
58909;BMP280;44690;48.154;17.102;2022-09-03T08:21:17;99664.94;;;24.41
58909;BMP280;44690;48.154;17.102;2022-09-03T08:22:51;99669.22;;;24.46
58909;BMP280;44690;48.154;17.102;2022-09-03T08:24:23;99656.16;;;24.19
58909;BMP280;44690;48.154;17.102;2022-09-03T08:26:00;99663.31;;;23.98
58909;BMP280;44690;48.154;17.102;2022-09-03T08:27:32;99665.16;;;23.89
58909;BMP280;44690;48.154;17.102;2022-09-03T08:29:06;99664.31;;;23.83
58909;BMP280;44690;48.154;17.102;2022-09-03T08:30:38;99667.44;;;23.99
58909;BMP280;44690;48.154;17.102;2022-09-03T08:32:10;99669.91;;;24.15
58909;BMP280;44690;48.154;17.102;2022-09-03T08:33:48;99667.75;;;24.11
58909;BMP280;44690;48.154;17.102;2022-09-03T08:35:21;99667.34;;;23.93
58909;BMP280;44690;48.154;17.102;2022-09-03T08:36:54;99656.78;;;23.87
58909;BMP280;44690;48.154;17.102;2022-09-03T08:38:27;99653.13;;;23.79
58909;BMP280;44690;48.154;17.102;2022-09-03T08:39:59;99657.25;;;23.77
58909;BMP280;44690;48.154;17.102;2022-09-03T08:43:23;99662.91;;;23.54
58909;BMP280;44690;48.154;17.102;2022-09-03T08:44:59;99655.53;;;23.36
58909;BMP280;44690;48.154;17.102;2022-09-03T08:48:15;99660.09;;;23.00
58909;BMP280;44690;48.154;17.102;2022-09-03T08:50:03;99650.91;;;22.93
58909;BMP280;44690;48.154;17.102;2022-09-03T08:51:35;99648.78;;;22.92
58909;BMP280;44690;48.154;17.102;2022-09-03T08:53:14;99653.13;;;22.99
58909;BMP280;44690;48.154;17.102;2022-09-03T08:54:46;99642.41;;;22.85
58909;BMP280;44690;48.154;17.102;2022-09-03T08:56:20;99645.72;;;22.56
58909;BMP280;44690;48.154;17.102;2022-09-03T08:59:36;99639.97;;;22.04
58909;BMP280;44690;48.154;17.102;2022-09-03T09:02:47;99633.72;;;21.40
58909;BMP280;44690;48.154;17.102;2022-09-03T09:06:16;99627.22;;;21.12
58909;BMP280;44690;48.154;17.102;2022-09-03T09:07:56;99636.00;;;21.06
58909;BMP280;44690;48.154;17.102;2022-09-03T09:09:54;99630.81;;;20.96
58909;BMP280;44690;48.154;17.102;2022-09-03T09:13:18;99637.63;;;20.75
58909;BMP280;44690;48.154;17.102;2022-09-03T09:14:59;99628.03;;;20.77
58909;BMP280;44690;48.154;17.102;2022-09-03T09:16:46;99628.72;;;20.77
58909;BMP280;44690;48.154;17.102;2022-09-03T09:20:16;99623.91;;;20.78
58909;BMP280;44690;48.154;17.102;2022-09-03T09:21:54;99618.47;;;20.80
58909;BMP280;44690;48.154;17.102;2022-09-03T09:25:05;99624.22;;;20.86
58909;BMP280;44690;48.154;17.102;2022-09-03T09:26:41;99630.53;;;20.88
58909;BMP280;44690;48.154;17.102;2022-09-03T09:28:20;99623.75;;;20.91
58909;BMP280;44690;48.154;17.102;2022-09-03T09:29:53;99619.06;;;20.96
58909;BMP280;44690;48.154;17.102;2022-09-03T09:31:26;99618.09;;;21.07
58909;BMP280;44690;48.154;17.102;2022-09-03T09:33:02;99616.25;;;21.14
58909;BMP280;44690;48.154;17.102;2022-09-03T09:34:35;99615.28;;;21.25
58909;BMP280;44690;48.154;17.102;2022-09-03T09:36:09;99619.03;;;21.33
58909;BMP280;44690;48.154;17.102;2022-09-03T09:37:49;99615.59;;;21.35
58909;BMP280;44690;48.154;17.102;2022-09-03T09:39:23;99618.50;;;21.39
58909;BMP280;44690;48.154;17.102;2022-09-03T09:40:55;99621.97;;;21.39
58909;BMP280;44690;48.154;17.102;2022-09-03T09:42:30;99615.16;;;21.42
58909;BMP280;44690;48.154;17.102;2022-09-03T09:44:03;99613.81;;;21.44
58909;BMP280;44690;48.154;17.102;2022-09-03T09:45:39;99617.28;;;21.44
58909;BMP280;44690;48.154;17.102;2022-09-03T09:48:48;99620.41;;;21.54
58909;BMP280;44690;48.154;17.102;2022-09-03T09:50:20;99626.75;;;21.59
58909;BMP280;44690;48.154;17.102;2022-09-03T09:52:05;99622.88;;;21.66
58909;BMP280;44690;48.154;17.102;2022-09-03T09:53:39;99618.09;;;21.68
58909;BMP280;44690;48.154;17.102;2022-09-03T09:55:18;99627.88;;;21.71
58909;BMP280;44690;48.154;17.102;2022-09-03T09:56:57;99618.38;;;21.77
58909;BMP280;44690;48.154;17.102;2022-09-03T09:58:31;99632.34;;;21.83
58909;BMP280;44690;48.154;17.102;2022-09-03T10:00:05;99626.22;;;21.84
58909;BMP280;44690;48.154;17.102;2022-09-03T10:01:42;99626.97;;;21.87
58909;BMP280;44690;48.154;17.102;2022-09-03T10:03:17;99619.53;;;21.91